createdAt,value
2023-01-06T00:00:49.157Z,2.33
2023-01-06T00:03:16.654Z,2.10
2023-01-06T00:05:44.225Z,2.03
2023-01-06T00:08:11.757Z,2.30
2023-01-06T00:10:39.343Z,2.00
2023-01-06T00:13:06.828Z,2.07
2023-01-06T00:15:37.365Z,2.30
2023-01-06T00:18:04.972Z,2.10
2023-01-06T00:20:32.487Z,2.20
2023-01-06T00:23:00.034Z,2.00
2023-01-06T00:25:27.553Z,1.83
2023-01-06T00:27:55.933Z,2.20
2023-01-06T00:30:23.519Z,2.03
2023-01-06T00:32:51.792Z,2.37
2023-01-06T00:35:19.292Z,1.80
2023-01-06T00:37:49.075Z,2.20
2023-01-06T00:40:16.730Z,2.10
2023-01-06T00:42:44.313Z,2.53
2023-01-06T00:45:11.774Z,2.23
2023-01-06T00:47:39.344Z,2.13
2023-01-06T00:50:12.159Z,2.30
2023-01-06T00:52:39.929Z,2.00
2023-01-06T00:55:07.690Z,1.80
2023-01-06T00:57:35.247Z,1.80
2023-01-06T01:00:02.758Z,2.13
2023-01-06T01:02:30.533Z,1.80
2023-01-06T01:04:58.132Z,1.97
2023-01-06T01:07:25.732Z,1.63
2023-01-06T01:09:53.272Z,1.80
2023-01-06T01:12:20.844Z,1.83
2023-01-06T01:14:49.414Z,1.83
2023-01-06T01:17:18.639Z,1.70
2023-01-06T01:19:46.285Z,1.50
2023-01-06T01:22:13.809Z,1.67
2023-01-06T01:24:41.335Z,1.57
2023-01-06T01:27:09.259Z,1.30
2023-01-06T01:29:36.740Z,1.70
2023-01-06T01:32:04.424Z,1.27
2023-01-06T01:34:34.270Z,1.40
2023-01-06T01:37:01.827Z,1.60
2023-01-06T01:39:30.006Z,1.57
2023-01-06T01:41:58.243Z,1.90
2023-01-06T01:44:44.215Z,1.40
2023-01-06T01:47:12.751Z,1.43
2023-01-06T01:49:41.629Z,1.47
2023-01-06T01:52:10.503Z,1.43
2023-01-06T01:54:40.892Z,1.97
2023-01-06T01:57:17.762Z,1.57
2023-01-06T01:59:47.418Z,1.30
2023-01-06T02:02:16.539Z,1.80
2023-01-06T02:04:45.830Z,1.20
2023-01-06T02:07:13.428Z,1.57
2023-01-06T02:09:45.375Z,2.00
2023-01-06T02:12:13.130Z,1.67
2023-01-06T02:14:40.651Z,1.70
2023-01-06T02:17:27.146Z,1.87
2023-01-06T02:20:10.161Z,1.53
2023-01-06T02:22:40.589Z,1.60
2023-01-06T02:25:14.280Z,1.60
2023-01-06T02:27:41.854Z,1.87
2023-01-06T02:30:28.332Z,1.60
2023-01-06T02:33:05.945Z,1.53
2023-01-06T02:35:36.571Z,1.60
2023-01-06T02:38:12.956Z,1.83
2023-01-06T02:40:49.231Z,1.80
2023-01-06T02:43:26.317Z,1.47
2023-01-06T02:45:56.879Z,1.50
2023-01-06T02:48:39.735Z,1.50
2023-01-06T02:51:15.782Z,1.50
2023-01-06T02:53:49.582Z,1.63
2023-01-06T02:56:18.650Z,1.63
2023-01-06T02:58:55.377Z,1.57
2023-01-06T03:01:29.491Z,1.50
2023-01-06T03:03:58.481Z,1.40
2023-01-06T03:06:27.895Z,1.70
2023-01-06T03:08:56.857Z,1.70
2023-01-06T03:11:25.814Z,1.40
2023-01-06T03:14:10.850Z,1.43
2023-01-06T03:16:38.481Z,1.43
2023-01-06T03:19:06.041Z,1.60
2023-01-06T03:21:35.837Z,1.10
2023-01-06T03:24:05.348Z,1.30
2023-01-06T03:26:33.033Z,1.20
2023-01-06T03:29:01.173Z,1.20
2023-01-06T03:31:34.717Z,1.47
2023-01-06T03:34:09.144Z,1.20
2023-01-06T03:36:39.483Z,1.60
2023-01-06T03:39:29.688Z,1.13
2023-01-06T03:42:11.986Z,1.00
2023-01-06T03:44:48.471Z,1.33
2023-01-06T03:47:28.580Z,1.07
2023-01-06T03:50:07.905Z,1.60
2023-01-06T03:52:38.179Z,1.30
2023-01-06T03:55:05.795Z,1.30
2023-01-06T03:57:35.064Z,1.60
2023-01-06T04:00:07.698Z,1.30
2023-01-06T04:02:37.255Z,1.23
2023-01-06T04:05:12.365Z,1.10
2023-01-06T04:07:40.565Z,1.20
2023-01-06T04:10:08.715Z,1.37
2023-01-06T04:12:36.546Z,1.43
2023-01-06T04:15:04.280Z,1.40
2023-01-06T04:17:31.789Z,1.40
2023-01-06T04:19:59.315Z,1.73
2023-01-06T04:22:26.888Z,1.40
2023-01-06T04:24:54.391Z,1.47
2023-01-06T04:27:22.050Z,1.23
2023-01-06T04:29:49.585Z,1.27
2023-01-06T04:32:17.256Z,1.30
2023-01-06T04:34:44.786Z,1.30
2023-01-06T04:37:12.383Z,1.50
2023-01-06T04:39:39.936Z,1.53
2023-01-06T04:42:07.479Z,1.40
2023-01-06T04:44:38.185Z,1.60
2023-01-06T04:47:05.740Z,1.50
2023-01-06T04:49:33.245Z,1.00
2023-01-06T04:52:00.816Z,1.20
2023-01-06T04:54:28.434Z,1.10
2023-01-06T04:56:56.061Z,1.30
2023-01-06T04:59:23.586Z,1.20
2023-01-06T05:01:51.288Z,1.00
2023-01-06T05:04:18.874Z,1.37
2023-01-06T05:06:46.478Z,1.00
2023-01-06T05:09:14.022Z,1.00
2023-01-06T05:11:41.597Z,1.40
2023-01-06T05:14:09.151Z,1.20
2023-01-06T05:16:36.772Z,1.23
2023-01-06T05:19:04.314Z,1.13
2023-01-06T05:21:32.995Z,1.30
2023-01-06T05:24:00.762Z,1.20
2023-01-06T05:26:28.925Z,1.40
2023-01-06T05:28:56.475Z,1.33
2023-01-06T05:31:24.437Z,1.00
2023-01-06T05:33:53.448Z,1.23
2023-01-06T05:36:20.990Z,1.27
2023-01-06T05:38:52.436Z,1.07
2023-01-06T05:41:20.018Z,1.50
2023-01-06T05:43:47.531Z,1.10
2023-01-06T05:46:15.139Z,1.40
2023-01-06T05:48:42.727Z,1.13
2023-01-06T05:51:11.430Z,1.57
2023-01-06T05:53:40.371Z,1.17
2023-01-06T05:56:09.595Z,1.27
2023-01-06T05:58:38.086Z,1.40
2023-01-06T06:01:05.682Z,1.10
2023-01-06T06:03:33.481Z,1.40
2023-01-06T06:06:04.943Z,1.40
2023-01-06T06:08:32.800Z,1.43
2023-01-06T06:11:04.144Z,1.37
2023-01-06T06:13:31.811Z,0.90
2023-01-06T06:16:12.722Z,1.90
2023-01-06T06:18:40.890Z,1.10
2023-01-06T06:21:08.396Z,1.10
2023-01-06T06:23:36.492Z,1.03
2023-01-06T06:26:04.225Z,1.10
2023-01-06T06:28:32.886Z,1.07
2023-01-06T06:31:04.666Z,1.00
2023-01-06T06:33:32.370Z,1.00
2023-01-06T06:36:00.588Z,1.20
2023-01-06T06:38:29.834Z,1.30
2023-01-06T06:40:57.468Z,1.00
2023-01-06T06:43:25.154Z,1.23
2023-01-06T06:45:52.703Z,1.20
2023-01-06T06:48:20.301Z,1.13
2023-01-06T06:50:47.807Z,1.10
2023-01-06T06:53:15.408Z,1.03
2023-01-06T06:55:43.473Z,1.07
2023-01-06T06:58:11.072Z,0.90
2023-01-06T07:00:41.592Z,1.00
2023-01-06T07:03:09.168Z,0.90
2023-01-06T07:05:36.861Z,1.20
2023-01-06T07:08:04.591Z,1.00
2023-01-06T07:10:32.093Z,1.17
2023-01-06T07:12:59.676Z,1.10
2023-01-06T07:15:27.212Z,0.90
2023-01-06T07:17:54.767Z,0.90
2023-01-06T07:20:22.390Z,0.93
2023-01-06T07:22:49.967Z,1.23
2023-01-06T07:25:17.550Z,1.07
2023-01-06T07:27:45.104Z,1.00
2023-01-06T07:30:15.602Z,1.00
2023-01-06T07:32:43.284Z,1.10
2023-01-06T07:35:10.836Z,1.10
2023-01-06T07:37:40.527Z,1.10
2023-01-06T07:40:08.298Z,0.80
2023-01-06T07:42:36.519Z,1.40
2023-01-06T07:45:07.488Z,1.43
2023-01-06T07:47:35.261Z,1.27
2023-01-06T07:50:02.931Z,1.10
2023-01-06T07:52:30.694Z,0.80
2023-01-06T07:54:58.315Z,1.10
2023-01-06T07:57:29.137Z,1.17
2023-01-06T07:59:57.024Z,1.30
2023-01-06T08:02:24.689Z,0.80
2023-01-06T08:04:52.325Z,0.90
2023-01-06T08:07:19.808Z,1.00
2023-01-06T08:09:47.427Z,0.90
2023-01-06T08:12:14.927Z,1.00
2023-01-06T08:14:42.484Z,0.90
2023-01-06T08:17:09.970Z,0.80
2023-01-06T08:19:40.347Z,1.00
2023-01-06T08:22:10.126Z,1.00
2023-01-06T08:24:37.631Z,0.80
2023-01-06T08:27:05.140Z,0.80
2023-01-06T08:29:35.580Z,0.90
2023-01-06T08:32:10.285Z,1.10
2023-01-06T08:34:38.788Z,0.87
2023-01-06T08:37:06.315Z,0.90
2023-01-06T08:39:33.996Z,1.10
2023-01-06T08:42:01.550Z,0.97
2023-01-06T08:44:29.166Z,1.27
2023-01-06T08:46:56.642Z,0.87
2023-01-06T08:49:24.150Z,1.07
2023-01-06T08:51:51.680Z,0.83
2023-01-06T08:54:19.307Z,1.30
2023-01-06T08:56:47.957Z,0.90
2023-01-06T08:59:16.709Z,1.10
2023-01-06T09:01:44.818Z,1.13
2023-01-06T09:04:13.049Z,0.97
2023-01-06T09:06:42.810Z,0.97
2023-01-06T09:09:10.583Z,0.97
2023-01-06T09:11:38.241Z,0.90
2023-01-06T09:14:05.774Z,1.10
2023-01-06T09:16:33.337Z,1.00
2023-01-06T09:19:00.883Z,1.17
2023-01-06T09:21:28.442Z,0.90
2023-01-06T09:23:56.019Z,0.90
2023-01-06T09:26:23.549Z,0.93
2023-01-06T09:28:51.307Z,1.00
2023-01-06T09:31:18.988Z,1.47
2023-01-06T09:33:46.583Z,1.30
2023-01-06T09:36:14.182Z,1.07
2023-01-06T09:38:41.810Z,1.00
2023-01-06T09:41:28.058Z,1.33
2023-01-06T09:44:14.267Z,1.00
2023-01-06T09:46:43.920Z,1.00
2023-01-06T09:49:26.581Z,1.23
2023-01-06T09:51:55.954Z,1.20
2023-01-06T09:54:25.960Z,1.00
2023-01-06T09:57:22.717Z,1.20
2023-01-06T09:59:55.949Z,1.20
2023-01-06T10:02:27.625Z,0.90
2023-01-06T10:04:55.252Z,0.97
2023-01-06T10:07:25.776Z,0.80
2023-01-06T10:10:12.239Z,0.93
2023-01-06T10:12:58.764Z,0.90
2023-01-06T10:15:32.438Z,0.80
2023-01-06T10:18:18.778Z,0.80
2023-01-06T10:20:50.813Z,0.80
2023-01-06T10:23:24.543Z,0.97
2023-01-06T10:25:56.096Z,0.90
2023-01-06T10:28:30.244Z,1.07
2023-01-06T10:31:24.163Z,0.90
2023-01-06T10:33:53.100Z,0.90
2023-01-06T10:36:29.337Z,0.90
2023-01-06T10:38:57.571Z,0.80
2023-01-06T10:41:27.774Z,1.10
2023-01-06T10:43:55.329Z,0.80
2023-01-06T10:46:22.893Z,1.23
2023-01-06T10:48:51.751Z,0.90
2023-01-06T10:51:31.592Z,0.80
2023-01-06T10:54:01.755Z,1.00
2023-01-06T10:56:30.337Z,1.03
2023-01-06T10:58:58.787Z,1.00
2023-01-06T11:01:27.453Z,1.00
2023-01-06T11:04:08.923Z,1.00
2023-01-06T11:06:37.035Z,1.10
2023-01-06T11:09:09.563Z,1.00
2023-01-06T11:11:46.459Z,1.10
2023-01-06T11:14:17.177Z,1.10
2023-01-06T11:16:53.438Z,1.40
2023-01-06T11:19:24.167Z,1.00
2023-01-06T11:21:51.778Z,1.00
2023-01-06T11:24:21.044Z,1.07
2023-01-06T11:26:51.545Z,1.00
2023-01-06T11:29:39.387Z,1.20
2023-01-06T11:32:23.841Z,1.17
2023-01-06T11:34:57.571Z,1.17
2023-01-06T11:37:35.831Z,1.00
2023-01-06T11:40:11.255Z,1.07
2023-01-06T11:45:07.359Z,1.07
2023-01-06T11:47:35.015Z,1.47
2023-01-06T11:50:02.815Z,1.13
2023-01-06T11:52:31.713Z,1.00
2023-01-06T11:55:19.442Z,1.20
2023-01-06T11:57:47.323Z,1.17
2023-01-06T12:00:32.963Z,1.17
2023-01-06T12:03:13.063Z,0.90
2023-01-06T12:05:43.467Z,1.20
2023-01-06T12:08:32.958Z,1.10
2023-01-06T12:11:03.653Z,1.23
2023-01-06T12:13:33.534Z,1.20
2023-01-06T12:16:27.615Z,1.20
2023-01-06T12:18:55.487Z,1.17
2023-01-06T12:21:28.428Z,1.40
2023-01-06T12:23:56.632Z,1.10
2023-01-06T12:26:24.932Z,1.20
2023-01-06T12:28:53.863Z,1.23
2023-01-06T12:31:24.125Z,1.20
2023-01-06T12:34:03.686Z,1.17
2023-01-06T12:36:34.284Z,1.40
2023-01-06T12:39:06.355Z,1.10
2023-01-06T12:41:40.395Z,1.27
2023-01-06T12:44:17.310Z,1.20
2023-01-06T12:46:50.795Z,1.10
2023-01-06T12:49:25.121Z,1.40
2023-01-06T12:51:55.297Z,1.43
2023-01-06T12:54:31.399Z,0.90
2023-01-06T12:56:59.000Z,0.70
2023-01-06T12:59:49.832Z,0.83
2023-01-06T13:02:17.474Z,0.90
2023-01-06T13:04:51.315Z,1.00
2023-01-06T13:07:27.037Z,1.03
2023-01-06T13:10:00.533Z,0.77
2023-01-06T13:12:54.435Z,0.90
2023-01-06T13:15:34.927Z,1.17
2023-01-06T13:18:09.408Z,1.03
2023-01-06T13:20:45.032Z,0.90
2023-01-06T13:23:12.692Z,0.80
2023-01-06T13:25:58.861Z,1.10
2023-01-06T13:28:26.458Z,0.90
2023-01-06T13:31:03.157Z,0.90
2023-01-06T13:33:47.758Z,1.20
2023-01-06T13:36:15.351Z,1.40
2023-01-06T13:38:45.917Z,1.20
2023-01-06T13:41:17.195Z,1.00
2023-01-06T13:43:47.356Z,1.00
2023-01-06T13:46:16.289Z,1.20
2023-01-06T13:48:50.690Z,1.00
2023-01-06T13:51:20.161Z,1.40
2023-01-06T13:53:47.997Z,1.20
2023-01-06T13:56:15.529Z,1.20
2023-01-06T13:58:43.567Z,1.10
2023-01-06T14:01:20.231Z,1.33
2023-01-06T14:03:51.859Z,1.43
2023-01-06T14:06:22.260Z,1.20
2023-01-06T14:08:57.106Z,1.00
2023-01-06T14:11:24.718Z,1.00
2023-01-06T14:13:54.387Z,1.13
2023-01-06T14:16:22.643Z,1.00
2023-01-06T14:18:52.128Z,1.20
2023-01-06T14:21:22.708Z,1.00
2023-01-06T14:24:02.019Z,1.30
2023-01-06T14:26:45.048Z,1.10
2023-01-06T14:29:31.227Z,1.00
2023-01-06T14:31:58.867Z,0.90
2023-01-06T14:34:28.297Z,1.00
2023-01-06T14:36:57.121Z,1.00
2023-01-06T14:39:25.875Z,1.00
2023-01-06T14:41:56.450Z,1.10
2023-01-06T14:44:34.215Z,1.20
2023-01-06T14:47:12.499Z,1.10
2023-01-06T14:49:47.045Z,1.30
2023-01-06T14:52:19.573Z,1.20
2023-01-06T14:54:48.600Z,1.20
2023-01-06T14:57:35.503Z,1.00
2023-01-06T15:00:06.155Z,0.90
2023-01-06T15:02:34.117Z,1.00
2023-01-06T15:05:02.195Z,1.30
2023-01-06T15:07:29.800Z,1.70
2023-01-06T15:10:13.946Z,1.83
2023-01-06T15:12:49.482Z,1.70
2023-01-06T15:15:25.072Z,2.40
2023-01-06T15:17:54.091Z,1.80
2023-01-06T15:20:27.815Z,1.83
2023-01-06T15:22:55.597Z,2.00
2023-01-06T15:25:25.450Z,2.00
2023-01-06T15:27:53.481Z,1.90
2023-01-06T15:30:22.130Z,1.70
2023-01-06T15:32:51.350Z,2.10
2023-01-06T15:35:21.682Z,1.93
2023-01-06T15:37:52.757Z,2.40
2023-01-06T15:40:22.092Z,1.80
2023-01-06T15:42:49.979Z,1.47
2023-01-06T15:45:28.516Z,1.70
2023-01-06T15:47:57.304Z,2.10
2023-01-06T15:50:26.656Z,2.00
2023-01-06T15:52:58.852Z,2.40
2023-01-06T15:55:30.702Z,2.20
2023-01-06T15:57:58.380Z,2.80
2023-01-06T16:00:27.318Z,2.27
2023-01-06T16:02:55.149Z,2.30
2023-01-06T16:05:36.595Z,2.40
2023-01-06T16:08:05.461Z,2.43
2023-01-06T16:10:36.981Z,2.47
2023-01-06T16:13:16.876Z,2.97
2023-01-06T16:15:46.547Z,2.80
2023-01-06T16:18:14.479Z,2.50
2023-01-06T16:20:42.291Z,2.70
2023-01-06T16:23:25.544Z,2.60
2023-01-06T16:26:02.772Z,2.60
2023-01-06T16:28:30.577Z,2.00
2023-01-06T16:31:08.995Z,2.27
2023-01-06T16:33:41.218Z,1.97
2023-01-06T16:36:17.890Z,2.33
2023-01-06T16:38:48.363Z,2.10
2023-01-06T16:41:17.338Z,2.00
2023-01-06T16:43:46.004Z,2.77
2023-01-06T16:46:17.333Z,2.10
2023-01-06T16:48:44.894Z,2.30
2023-01-06T16:51:18.654Z,2.00
2023-01-06T16:53:46.747Z,2.77
2023-01-06T16:56:21.680Z,2.40
2023-01-06T16:58:54.123Z,2.63
2023-01-06T17:01:22.744Z,1.83
2023-01-06T17:03:57.321Z,2.53
2023-01-06T17:06:27.087Z,2.20
2023-01-06T17:09:00.921Z,2.30
2023-01-06T17:11:29.955Z,2.63
2023-01-06T17:14:00.722Z,3.07
2023-01-06T17:16:31.513Z,2.73
2023-01-06T17:19:02.191Z,2.70
2023-01-06T17:21:36.717Z,3.27
2023-01-06T17:24:13.362Z,2.77
2023-01-06T17:26:41.156Z,3.03
2023-01-06T17:29:14.069Z,3.10
2023-01-06T17:31:43.058Z,3.23
2023-01-06T17:34:12.020Z,2.80
2023-01-06T17:36:40.631Z,2.67
2023-01-06T17:39:14.450Z,3.00
2023-01-06T17:41:42.096Z,3.00
2023-01-06T17:44:14.947Z,3.10
2023-01-06T17:46:42.896Z,2.90
2023-01-06T17:49:16.321Z,3.27
2023-01-06T17:51:44.225Z,3.30
2023-01-06T17:54:19.568Z,2.63
2023-01-06T17:56:47.382Z,2.70
2023-01-06T17:59:18.021Z,3.13
2023-01-06T18:01:45.633Z,3.10
2023-01-06T18:04:15.116Z,2.77
2023-01-06T18:06:44.776Z,2.57
2023-01-06T18:09:15.385Z,3.03
2023-01-06T18:11:47.139Z,3.30
2023-01-06T18:14:17.987Z,2.97
2023-01-06T18:16:49.629Z,2.70
2023-01-06T18:19:26.662Z,2.70
2023-01-06T18:21:54.496Z,2.57
2023-01-06T18:24:38.710Z,2.53
2023-01-06T18:27:12.517Z,2.50
2023-01-06T18:29:41.023Z,2.30
2023-01-06T18:32:25.609Z,2.60
2023-01-06T18:34:57.660Z,2.50
2023-01-06T18:37:27.103Z,2.87
2023-01-06T18:39:57.579Z,2.30
2023-01-06T18:42:26.605Z,2.53
2023-01-06T18:45:09.335Z,2.77
2023-01-06T18:47:38.269Z,2.07
2023-01-06T18:50:23.365Z,2.30
2023-01-06T18:52:51.860Z,2.20
2023-01-06T18:55:22.235Z,2.50
2023-01-06T18:57:53.943Z,2.20
2023-01-06T19:00:27.582Z,2.67
2023-01-06T19:03:00.028Z,2.40
2023-01-06T19:05:27.976Z,2.40
2023-01-06T19:07:56.721Z,2.30
2023-01-06T19:10:26.819Z,2.30
2023-01-06T19:12:58.949Z,2.20
2023-01-06T19:15:27.152Z,2.40
2023-01-06T19:17:54.761Z,2.10
2023-01-06T19:20:23.765Z,2.37
2023-01-06T19:22:51.327Z,1.93
2023-01-06T19:25:35.736Z,2.50
2023-01-06T19:28:05.600Z,2.43
2023-01-06T19:30:35.414Z,2.00
2023-01-06T19:33:15.784Z,3.00
2023-01-06T19:35:43.351Z,2.60
2023-01-06T19:38:20.402Z,2.70
2023-01-06T19:40:47.977Z,2.40
2023-01-06T19:43:16.477Z,2.53
2023-01-06T19:45:44.580Z,3.00
2023-01-06T19:48:32.394Z,2.77
2023-01-06T19:51:17.018Z,2.87
2023-01-06T19:53:46.033Z,2.80
2023-01-06T19:56:17.030Z,2.73
2023-01-06T19:58:47.216Z,2.77
2023-01-06T20:01:14.938Z,3.47
2023-01-06T20:03:43.634Z,2.73
2023-01-06T20:06:12.621Z,2.90
2023-01-06T20:08:40.137Z,3.30
2023-01-06T20:11:08.149Z,3.07
2023-01-06T20:13:35.654Z,3.10
2023-01-06T20:16:04.007Z,3.00
2023-01-06T20:18:31.636Z,2.70
2023-01-06T20:20:59.299Z,2.70
2023-01-06T20:23:27.165Z,2.80
2023-01-06T20:25:54.718Z,2.90
2023-01-06T20:28:22.349Z,2.37
2023-01-06T20:30:49.865Z,2.73
2023-01-06T20:33:17.682Z,2.20
2023-01-06T20:35:45.369Z,2.83
2023-01-06T20:38:12.904Z,2.70
2023-01-06T20:40:40.478Z,2.90
2023-01-06T20:43:10.482Z,2.77
2023-01-06T20:45:38.123Z,3.00
2023-01-06T20:48:05.832Z,2.40
2023-01-06T20:50:33.423Z,3.10
2023-01-06T20:53:00.941Z,2.70
2023-01-06T20:55:28.466Z,2.60
2023-01-06T20:57:56.111Z,2.53
2023-01-06T21:00:23.628Z,2.60
2023-01-06T21:02:51.255Z,2.60
2023-01-06T21:05:18.832Z,2.50
2023-01-06T21:07:46.422Z,2.40
2023-01-06T21:10:14.245Z,2.37
2023-01-06T21:12:41.753Z,2.50
2023-01-06T21:15:10.147Z,2.70
2023-01-06T21:17:37.684Z,2.30
2023-01-06T21:20:07.135Z,1.97
2023-01-06T21:22:34.844Z,2.20
2023-01-06T21:25:02.553Z,2.27
2023-01-06T21:27:30.191Z,1.80
2023-01-06T21:29:57.722Z,2.10
2023-01-06T21:32:25.238Z,2.30
2023-01-06T21:34:52.732Z,2.13
2023-01-06T21:37:20.325Z,2.27
2023-01-06T21:39:48.259Z,2.00
2023-01-06T21:42:15.926Z,2.00
2023-01-06T21:44:43.498Z,1.97
2023-01-06T21:47:11.102Z,2.20
2023-01-06T21:49:38.871Z,1.93
2023-01-06T21:52:06.484Z,2.40
2023-01-06T21:54:34.072Z,2.40
2023-01-06T21:57:01.601Z,2.17
2023-01-06T21:59:29.229Z,2.07
2023-01-06T22:01:56.913Z,2.20
2023-01-06T22:04:24.496Z,1.90
2023-01-06T22:06:52.531Z,2.20
2023-01-06T22:09:21.780Z,1.90
2023-01-06T22:11:49.362Z,2.10
2023-01-06T22:14:17.526Z,2.30
2023-01-06T22:16:45.760Z,1.93
2023-01-06T22:19:14.681Z,2.33
2023-01-06T22:21:43.711Z,1.60
2023-01-06T22:24:12.969Z,1.70
2023-01-06T22:26:40.568Z,1.87
2023-01-06T22:29:08.261Z,1.80
2023-01-06T22:31:36.329Z,2.03
2023-01-06T22:34:04.189Z,1.97
2023-01-06T22:36:31.731Z,2.03
2023-01-06T22:38:59.298Z,2.17
2023-01-06T22:41:26.955Z,2.60
2023-01-06T22:43:54.501Z,2.10
2023-01-06T22:46:22.050Z,2.10
2023-01-06T22:48:49.569Z,2.37
2023-01-06T22:51:17.165Z,2.33
2023-01-06T22:53:44.748Z,2.10
2023-01-06T22:56:13.021Z,2.27
2023-01-06T22:58:41.221Z,2.00
2023-01-06T23:01:11.660Z,1.83
2023-01-06T23:03:39.264Z,2.07
2023-01-06T23:06:08.707Z,2.20
2023-01-06T23:08:40.756Z,2.07
2023-01-06T23:11:16.911Z,2.20
2023-01-06T23:13:45.418Z,2.40
2023-01-06T23:16:14.561Z,2.20
2023-01-06T23:18:43.044Z,2.00
2023-01-06T23:21:12.274Z,2.20
2023-01-06T23:23:40.848Z,2.27
2023-01-06T23:26:12.708Z,2.23
2023-01-06T23:28:40.291Z,2.23
2023-01-06T23:31:12.184Z,2.40
2023-01-06T23:33:44.484Z,2.10
2023-01-06T23:36:13.271Z,2.30
2023-01-06T23:38:41.920Z,2.20
2023-01-06T23:41:09.894Z,1.90
2023-01-06T23:43:38.550Z,2.13
2023-01-06T23:46:08.550Z,1.83
2023-01-06T23:48:37.248Z,2.00
2023-01-06T23:51:05.507Z,2.00
2023-01-06T23:53:33.463Z,2.10
2023-01-06T23:56:04.030Z,1.77
2023-01-06T23:58:32.329Z,2.10
